Maid Marian II — SVA6642 — position and weather

sailwx.info

Track history (hours):
 
Tides and Currents Weather Stations Pressure Air Temp Water Temp Dewpoint Dewpoint Depression Visibility Wind Speed Wind Dir Waves Ship Positions

Maid Marian II

Last reported at 2018-Jul-22 10:54 UTC. Time now 2018-Jul-23 02:11 UTC.
Position N 37°22' E 025°15'.

Length 34 m.

Type: Passenger vessel. MMSI: 239917800.

Date/timePositionNaut miles runAvg speedWind from/ knotsBaromVisibWave heightAir tempDewpointWater temp
2018-Jul-22 10:54N 37°22' E 025°15'1 0.2
2018-Jul-22 05:01N 37°22' E 025°16'110.5
2018-Jul-22 04:56N 37°23' E 025°17'6 0.2
2018-Jul-20 16:58N 37°25' E 025°24'4 0.2
2018-Jul-19 22:52N 37°21' E 025°22'410.2
2018-Jul-19 22:28N 37°18' E 025°20'510.4
2018-Jul-19 21:58N 37°13' E 025°17'6 3.9
2018-Jul-19 20:27N 37°08' E 025°14'0 0.0
2018-Jul-19 18:12N 37°08' E 025°14'0 0.8
2018-Jul-19 17:47N 37°08' E 025°15'3 9.1
2018-Jul-19 17:29N 37°09' E 025°17'5 9.3
2018-Jul-19 17:00N 37°05' E 025°17'  
Track history (hours):
 
Tides and Currents Weather Stations Pressure Air Temp Water Temp Dewpoint Dewpoint Depression Visibility Wind Speed Wind Dir Waves Ship Positions

Maid Marian II

Last reported at 2018-Jul-22 10:54 UTC. Time now 2018-Jul-23 02:11 UTC.
Position N 37°22' E 025°15'.

Length 34 m.

Type: Passenger vessel. MMSI: 239917800.

Date/timePositionNaut miles runAvg speedWind from/ knotsBaromVisibWave heightAir tempDewpointWater temp
2018-Jul-22 10:54N 37°22' E 025°15'1 0.2
2018-Jul-22 05:01N 37°22' E 025°16'110.5
2018-Jul-22 04:56N 37°23' E 025°17'6 0.2
2018-Jul-20 16:58N 37°25' E 025°24'4 0.2
2018-Jul-19 22:52N 37°21' E 025°22'410.2
2018-Jul-19 22:28N 37°18' E 025°20'510.4
2018-Jul-19 21:58N 37°13' E 025°17'6 3.9
2018-Jul-19 20:27N 37°08' E 025°14'0 0.0
2018-Jul-19 18:12N 37°08' E 025°14'0 0.8
2018-Jul-19 17:47N 37°08' E 025°15'3 9.1
2018-Jul-19 17:29N 37°09' E 025°17'5 9.3
2018-Jul-19 17:00N 37°05' E 025°17'  

Dump ship's entire track history